Time;durP1;ratioP1;P1;durP2;ratioP2;P2;SDS_P1;SDS_P2;PMS_P1;PMS_P2;Temp;Humidity;BMP_temperature;BMP_pressure;BME280_temperature;BME280_humidity;BME280_pressure;Samples;Min_cycle;Max_cycle;Signal;HPM_P1;HPM_P2
2022/02/08 00:00:49;;;;;;;18.70;2.60;;;;;;;2.64;77.03;100689.95;106325;1271;24289;-57
2022/02/08 00:03:19;;;;;;;16.50;1.50;;;;;;;2.64;76.92;100691.77;106306;1271;24281;-57
2022/02/08 00:05:57;;;;;;;13.90;1.30;;;;;;;2.64;77.05;100691.61;106318;1270;25392;-56
2022/02/08 00:08:25;;;;;;;15.80;1.90;;;;;;;2.64;76.81;100698.39;106207;1271;24695;-58
2022/02/08 00:10:54;;;;;;;18.10;1.90;;;;;;;2.65;76.91;100699.85;106371;1271;22574;-59
2022/02/08 00:13:23;;;;;;;16.70;2.00;;;;;;;2.66;76.70;100702.92;106586;1271;22683;-58
2022/02/08 00:15:51;;;;;;;20.70;1.60;;;;;;;2.66;76.68;100706.70;106356;1270;22547;-56
2022/02/08 00:18:20;;;;;;;14.90;1.40;;;;;;;2.68;76.46;100712.26;106376;1271;22532;-57
2022/02/08 00:20:49;;;;;;;11.50;1.00;;;;;;;2.70;76.52;100711.67;106153;1271;25969;-59
2022/02/08 00:23:17;;;;;;;21.40;1.70;;;;;;;2.70;76.26;100719.80;106213;1271;22485;-57
2022/02/08 00:25:45;;;;;;;13.30;1.40;;;;;;;2.72;76.08;100706.92;106295;1271;22537;-58
2022/02/08 00:28:14;;;;;;;15.70;1.80;;;;;;;2.75;76.08;100714.38;106376;1270;22541;-54
2022/02/08 00:30:42;;;;;;;19.90;1.90;;;;;;;2.76;76.03;100720.11;106190;1271;25386;-58
2022/02/08 00:33:11;;;;;;;15.80;1.60;;;;;;;2.77;75.78;100719.71;106261;1271;22703;-59
2022/02/08 00:35:39;;;;;;;13.50;1.90;;;;;;;2.78;75.90;100716.23;106176;1271;24314;-59
2022/02/08 00:38:07;;;;;;;14.70;1.50;;;;;;;2.78;75.78;100724.96;106226;1271;22478;-60
2022/02/08 00:40:36;;;;;;;16.00;1.20;;;;;;;2.78;75.70;100728.20;106312;1271;22571;-57
2022/02/08 00:43:06;;;;;;;15.30;1.10;;;;;;;2.77;75.34;100725.53;106381;1270;24262;-57
2022/02/08 00:45:47;;;;;;;14.80;1.80;;;;;;;2.77;75.56;100728.36;106244;1271;24405;-55
2022/02/08 00:48:24;;;;;;;14.30;1.30;;;;;;;2.75;75.23;100734.70;106318;1271;24678;-58
2022/02/08 00:50:53;;;;;;;20.00;2.50;;;;;;;2.73;75.41;100735.83;106336;1271;25388;-59
2022/02/08 00:53:21;;;;;;;22.30;1.80;;;;;;;2.69;75.31;100735.08;106331;1271;24224;-56
2022/02/08 00:55:50;;;;;;;12.90;1.20;;;;;;;2.68;75.22;100744.56;106249;1270;22539;-59
2022/02/08 00:58:19;;;;;;;15.80;1.70;;;;;;;2.65;75.24;100743.89;106404;1270;27589;-57
2022/02/08 01:00:48;;;;;;;14.20;1.70;;;;;;;2.61;75.24;100740.00;106364;1270;24229;-62
2022/02/08 01:03:17;;;;;;;16.40;1.20;;;;;;;2.58;75.28;100744.29;106292;1270;25449;-59
2022/02/08 01:05:50;;;;;;;19.50;1.60;;;;;;;2.55;75.37;100746.23;106246;1270;25568;-56
2022/02/08 01:08:19;;;;;;;16.60;1.10;;;;;;;2.51;75.45;100744.77;106303;1271;22535;-56
2022/02/08 01:10:47;;;;;;;17.40;1.80;;;;;;;2.48;75.49;100742.44;106378;1271;22557;-58
2022/02/08 01:13:16;;;;;;;19.50;1.70;;;;;;;2.45;75.35;100747.52;106894;1271;25402;-56
2022/02/08 01:15:45;;;;;;;18.00;1.90;;;;;;;2.43;75.46;100751.55;106750;1271;24189;-59
2022/02/08 01:18:14;;;;;;;19.30;1.50;;;;;;;2.41;75.52;100766.70;106269;1271;24324;-58
2022/02/08 01:20:43;;;;;;;8.70;0.90;;;;;;;2.41;75.42;100774.56;106215;1271;26070;-57
2022/02/08 01:23:12;;;;;;;16.80;1.50;;;;;;;2.41;75.55;100772.91;106310;1271;22538;-60
2022/02/08 01:25:44;;;;;;;16.20;1.10;;;;;;;2.39;75.60;100777.11;106391;1271;26561;-58
2022/02/08 01:28:21;;;;;;;17.60;1.30;;;;;;;2.36;75.61;100779.50;106374;1271;25374;-59
2022/02/08 01:31:00;;;;;;;14.50;1.20;;;;;;;2.34;75.50;100786.61;106248;1271;24389;-58
2022/02/08 01:39:16;;;;;;;17.70;1.40;;;;;;;2.31;75.56;100793.58;105858;1276;25264;-58
2022/02/08 01:44:36;;;;;;;13.10;1.50;;;;;;;2.31;75.71;100807.35;105467;1281;26705;-58
2022/02/08 01:47:20;;;;;;;17.40;1.50;;;;;;;2.30;75.58;100809.16;105465;1281;24326;-59
2022/02/08 01:49:59;;;;;;;18.60;2.20;;;;;;;2.28;75.59;100817.14;105589;1281;24281;-60
2022/02/08 01:52:29;;;;;;;11.80;1.20;;;;;;;2.25;75.64;100822.67;105828;1281;22581;-59
2022/02/08 01:54:57;;;;;;;14.30;1.60;;;;;;;2.25;75.70;100819.77;105486;1281;22865;-58
2022/02/08 01:57:25;;;;;;;12.70;1.10;;;;;;;2.24;75.81;100827.49;105450;1281;26518;-60
2022/02/08 01:59:55;;;;;;;14.80;1.10;;;;;;;2.22;75.72;100827.58;105511;1282;22537;-59
2022/02/08 02:02:23;;;;;;;21.30;2.50;;;;;;;2.22;75.78;100830.18;105462;1281;22896;-58
2022/02/08 02:04:53;;;;;;;18.60;1.40;;;;;;;2.21;75.87;100836.48;105597;1281;22578;-59
2022/02/08 02:07:21;;;;;;;17.60;1.70;;;;;;;2.19;75.80;100843.59;105419;1281;24312;-59
2022/02/08 02:09:49;;;;;;;14.40;1.00;;;;;;;2.17;75.80;100846.98;105687;1281;24254;-59
2022/02/08 02:12:18;;;;;;;15.10;3.10;;;;;;;2.16;75.91;100850.61;105511;1281;22547;-59
2022/02/08 02:14:46;;;;;;;15.90;1.30;;;;;;;2.13;75.95;100854.42;105513;1282;22755;-57
2022/02/08 02:17:16;;;;;;;20.10;1.50;;;;;;;2.12;75.92;100856.95;105804;1277;22557;-59
2022/02/08 02:19:47;;;;;;;14.80;1.20;;;;;;;2.10;75.98;100861.30;106028;1276;22593;-59
2022/02/08 02:22:16;;;;;;;18.90;1.20;;;;;;;2.07;76.05;100862.34;106008;1274;22866;-58
2022/02/08 02:24:44;;;;;;;22.20;1.60;;;;;;;2.04;76.12;100866.23;106357;1271;22586;-60
2022/02/08 02:27:13;;;;;;;14.60;2.00;;;;;;;2.03;76.13;100871.27;106322;1271;22532;-58
2022/02/08 02:29:41;;;;;;;11.50;1.30;;;;;;;2.03;76.19;100874.82;106230;1271;22559;-57
2022/02/08 02:32:10;;;;;;;13.40;1.40;;;;;;;2.03;76.25;100877.50;106320;1271;25351;-57
2022/02/08 02:34:47;;;;;;;20.00;1.60;;;;;;;2.03;76.25;100878.36;106391;1271;22691;-57
2022/02/08 02:37:16;;;;;;;18.20;1.50;;;;;;;2.04;76.41;100882.98;106375;1271;25078;-58
2022/02/08 02:39:45;;;;;;;19.00;1.80;;;;;;;2.03;76.33;100886.61;106341;1271;22472;-57
2022/02/08 02:42:15;;;;;;;15.60;1.20;;;;;;;2.03;76.35;100881.89;106419;1271;22662;-57
2022/02/08 02:44:44;;;;;;;15.20;1.50;;;;;;;2.03;76.40;100883.24;106248;1271;25267;-55
2022/02/08 02:47:13;;;;;;;17.50;2.30;;;;;;;2.05;76.54;100889.59;106281;1271;22688;-58
2022/02/08 02:49:42;;;;;;;19.20;1.30;;;;;;;2.08;76.53;100892.79;106452;1271;22572;-56
2022/02/08 02:52:10;;;;;;;18.10;2.10;;;;;;;2.12;76.56;100899.85;106222;1271;22877;-57
2022/02/08 02:54:39;;;;;;;20.20;2.30;;;;;;;2.15;76.53;100904.86;106165;1271;22555;-57
2022/02/08 02:57:10;;;;;;;21.20;2.50;;;;;;;2.16;76.54;100908.85;106325;1271;22553;-55
2022/02/08 02:59:40;;;;;;;24.20;1.50;;;;;;;2.18;76.56;100916.08;106281;1271;23247;-57
2022/02/08 03:05:03;;;;;;;13.40;1.40;;;;;;;2.21;76.61;100921.34;105852;1277;24352;-58
2022/02/08 03:18:40;;;;;;;22.30;1.50;;;;;;;2.26;76.70;100935.54;105722;1275;25560;-56
2022/02/08 03:21:10;;;;;;;16.60;1.30;;;;;;;2.26;76.75;100939.39;105842;1278;22536;-57
2022/02/08 03:23:40;;;;;;;16.10;1.30;;;;;;;2.27;76.77;100942.45;105965;1275;22549;-59
2022/02/08 03:26:09;;;;;;;19.30;2.00;;;;;;;2.28;76.84;100944.02;105934;1274;23192;-60
2022/02/08 03:28:37;;;;;;;18.90;1.90;;;;;;;2.28;76.77;100949.52;106056;1274;22762;-57
2022/02/08 03:31:06;;;;;;;26.80;3.10;;;;;;;2.29;76.85;100953.23;105870;1274;22531;-57
2022/02/08 03:33:34;;;;;;;21.30;2.50;;;;;;;2.29;76.94;100960.63;105994;1274;22582;-57
2022/02/08 03:36:03;;;;;;;11.60;1.20;;;;;;;2.30;77.06;100966.83;105847;1274;22572;-58
2022/02/08 03:38:35;;;;;;;21.90;1.70;;;;;;;2.31;77.12;100961.55;106138;1274;24381;-55
2022/02/08 03:41:07;;;;;;;21.40;2.80;;;;;;;2.33;77.20;100970.98;106257;1274;24234;-58
2022/02/08 03:43:38;;;;;;;13.80;1.40;;;;;;;2.33;77.17;100970.83;106377;1271;26142;-57
2022/02/08 03:46:12;;;;;;;19.40;2.30;;;;;;;2.34;77.28;100976.17;106224;1271;22555;-58
2022/02/08 03:48:43;;;;;;;24.80;1.80;;;;;;;2.34;77.35;100979.79;106489;1271;24249;-56
2022/02/08 03:51:14;;;;;;;13.50;1.40;;;;;;;2.35;77.32;100978.05;107127;1270;25914;-57
2022/02/08 03:53:47;;;;;;;17.10;1.40;;;;;;;2.38;77.44;100977.31;106371;1271;24197;-57
2022/02/08 03:56:20;;;;;;;17.30;1.70;;;;;;;2.38;77.35;100979.44;106458;1271;22536;-58
2022/02/08 03:58:49;;;;;;;17.80;1.80;;;;;;;2.39;77.43;100980.79;106368;1271;22551;-59
2022/02/08 04:01:49;;;;;;;24.20;2.10;;;;;;;2.40;77.46;100979.42;106513;1271;22602;-58
2022/02/08 04:04:30;;;;;;;18.00;2.50;;;;;;;2.41;77.46;100983.83;106365;1271;22544;-58
2022/02/08 04:07:01;;;;;;;16.80;1.80;;;;;;;2.41;77.45;100984.92;106255;1271;22603;-57
2022/02/08 04:09:30;;;;;;;16.00;1.70;;;;;;;2.42;77.56;100993.35;106296;1271;22566;-57
2022/02/08 04:12:02;;;;;;;19.50;1.90;;;;;;;2.43;77.46;100997.91;106323;1271;25313;-57
2022/02/08 04:14:39;;;;;;;12.00;2.20;;;;;;;2.44;77.47;101002.30;106300;1271;24234;-58
2022/02/08 04:17:24;;;;;;;19.10;2.30;;;;;;;2.45;77.43;101007.90;106229;1271;22563;-59
2022/02/08 04:31:20;;;;;;;18.30;1.80;;;;;;;2.47;77.38;101017.96;106402;1271;22615;-57
2022/02/08 04:34:38;;;;;;;13.40;1.10;;;;;;;2.57;76.74;101017.95;105732;1277;22562;-57
2022/02/08 04:40:11;;;;;;;17.90;1.30;;;;;;;2.60;76.63;101019.20;105586;1281;22509;-58
2022/02/08 04:42:47;;;;;;;13.80;1.60;;;;;;;2.62;76.47;101020.60;105534;1281;22561;-58
2022/02/08 04:45:25;;;;;;;23.30;2.10;;;;;;;2.64;76.44;101017.98;105342;1281;22667;-58
2022/02/08 04:48:04;;;;;;;17.40;1.90;;;;;;;2.66;76.30;101021.45;105395;1282;24284;-57
2022/02/08 04:50:35;;;;;;;18.10;1.90;;;;;;;2.67;76.04;101021.51;105395;1281;23200;-58
2022/02/08 04:53:11;;;;;;;14.30;1.10;;;;;;;2.69;76.08;101020.93;105322;1281;22712;-59
2022/02/08 04:55:48;;;;;;;12.90;1.00;;;;;;;2.71;75.99;101018.55;105284;1281;22550;-57
2022/02/08 04:58:26;;;;;;;17.70;1.60;;;;;;;2.73;75.80;101025.63;105358;1282;24454;-56
2022/02/08 05:01:06;;;;;;;10.60;1.30;;;;;;;2.74;75.99;101022.46;105443;1281;22562;-57
2022/02/08 05:34:58;;;;;;;19.20;2.00;;;;;;;2.72;77.08;101033.66;104882;1285;25865;-56
2022/02/08 05:40:35;;;;;;;22.70;1.50;;;;;;;2.70;77.16;101033.68;104558;1287;22561;-57
2022/02/08 05:40:59;;;;;;;14.10;1.10;;;;;;;2.70;77.44;101033.69;104699;1287;25347;-58
2022/02/08 05:43:41;;;;;;;14.60;1.30;;;;;;;2.71;77.50;101035.17;104588;1287;22558;-56
2022/02/08 05:46:46;;;;;;;20.60;2.00;;;;;;;2.71;77.58;101040.21;104649;1287;22554;-57
2022/02/08 05:49:24;;;;;;;11.40;1.30;;;;;;;2.72;77.62;101041.23;104681;1287;24326;-59
2022/02/08 05:52:20;;;;;;;11.90;1.30;;;;;;;2.74;77.68;101043.80;104752;1287;22704;-60
2022/02/08 05:54:47;;;;;;;15.40;1.30;;;;;;;2.74;77.84;101035.69;105199;1281;26555;-56
2022/02/08 05:57:15;;;;;;;9.80;1.00;;;;;;;2.75;77.94;101037.34;105358;1281;25473;-57
2022/02/08 05:59:44;;;;;;;18.30;1.80;;;;;;;2.76;78.07;101038.11;105267;1281;22596;-56
2022/02/08 06:02:13;;;;;;;18.60;2.20;;;;;;;2.76;78.08;101042.45;105379;1281;24003;-56
2022/02/08 06:04:43;;;;;;;25.80;2.10;;;;;;;2.77;78.02;101045.29;105669;1278;22601;-62
2022/02/08 06:07:15;;;;;;;16.60;2.00;;;;;;;2.79;78.15;101051.42;105740;1271;22848;-56
2022/02/08 06:09:45;;;;;;;9.90;1.30;;;;;;;2.80;78.21;101051.02;106010;1271;22538;-58
2022/02/08 06:12:13;;;;;;;19.90;1.90;;;;;;;2.80;78.45;101052.51;106009;1271;24582;-58
2022/02/08 06:14:43;;;;;;;20.30;2.00;;;;;;;2.80;78.53;101051.33;106079;1271;25918;-58
2022/02/08 06:17:11;;;;;;;20.50;2.10;;;;;;;2.81;78.52;101046.13;106151;1271;25592;-58
2022/02/08 06:19:40;;;;;;;14.70;1.90;;;;;;;2.82;78.62;101046.19;106056;1271;24230;-55
2022/02/08 06:22:08;;;;;;;17.40;2.40;;;;;;;2.82;78.69;101045.00;105933;1271;24076;-55
2022/02/08 06:24:37;;;;;;;18.70;2.50;;;;;;;2.83;78.68;101041.54;106101;1271;24371;-57
2022/02/08 06:27:08;;;;;;;23.50;3.70;;;;;;;2.83;78.79;101041.05;106390;1271;22590;-56
2022/02/08 06:29:37;;;;;;;21.20;3.50;;;;;;;2.84;78.77;101041.75;106325;1271;22649;-59
2022/02/08 06:32:07;;;;;;;18.50;1.90;;;;;;;2.85;78.81;101042.30;105699;1271;22559;-58
2022/02/08 06:34:36;;;;;;;21.90;2.20;;;;;;;2.86;78.81;101042.84;106078;1271;22538;-57
2022/02/08 06:37:10;;;;;;;15.70;1.60;;;;;;;2.87;78.93;101039.06;106121;1271;22691;-57
2022/02/08 06:39:38;;;;;;;19.70;2.20;;;;;;;2.87;78.93;101033.45;105916;1271;22544;-60
2022/02/08 06:42:10;;;;;;;16.00;1.40;;;;;;;2.89;78.95;101027.62;105987;1270;22582;-57
2022/02/08 06:44:39;;;;;;;25.10;2.50;;;;;;;2.90;78.98;101019.71;106030;1271;24702;-58
2022/02/08 06:47:08;;;;;;;9.90;2.00;;;;;;;2.91;79.00;101014.83;105956;1271;25269;-60
2022/02/08 06:49:37;;;;;;;17.50;2.30;;;;;;;2.93;79.04;101016.54;106085;1270;22645;-56
2022/02/08 06:52:07;;;;;;;27.20;3.70;;;;;;;2.94;79.16;101016.75;106290;1270;22564;-57
2022/02/08 06:54:36;;;;;;;17.60;1.70;;;;;;;2.95;79.18;101014.40;106106;1270;22605;-56
2022/02/08 06:57:06;;;;;;;17.10;2.20;;;;;;;2.96;79.23;101009.52;106215;1271;22535;-57
2022/02/08 06:59:38;;;;;;;18.30;2.30;;;;;;;2.97;79.15;101009.25;106227;1271;22544;-55
2022/02/08 07:02:07;;;;;;;11.00;1.20;;;;;;;2.98;79.13;101005.95;105884;1271;22567;-56
2022/02/08 07:04:35;;;;;;;15.30;1.50;;;;;;;2.98;79.16;101001.85;105951;1271;24259;-56
2022/02/08 07:07:04;;;;;;;13.60;1.30;;;;;;;2.98;79.17;100997.98;106123;1271;22604;-59
2022/02/08 07:09:33;;;;;;;17.40;1.30;;;;;;;2.99;79.18;101000.02;105993;1271;22498;-56
2022/02/08 07:12:02;;;;;;;13.60;1.30;;;;;;;3.00;79.15;101007.02;106056;1271;22683;-58
2022/02/08 07:14:32;;;;;;;15.20;1.20;;;;;;;3.00;79.13;101008.02;106023;1271;24243;-59
2022/02/08 07:17:02;;;;;;;14.90;1.80;;;;;;;3.02;79.17;101006.36;105873;1271;22559;-57
2022/02/08 07:19:32;;;;;;;15.60;1.30;;;;;;;3.03;79.14;101011.48;106094;1271;22565;-60
2022/02/08 07:22:00;;;;;;;14.30;1.40;;;;;;;3.04;79.10;101006.34;105727;1271;22556;-59
2022/02/08 07:24:31;;;;;;;13.60;2.10;;;;;;;3.05;79.08;101003.02;105853;1273;25927;-57
2022/02/08 07:27:00;;;;;;;13.10;1.50;;;;;;;3.07;79.08;101006.86;106065;1270;22570;-60
2022/02/08 07:29:29;;;;;;;17.70;1.60;;;;;;;3.07;78.96;101004.73;105952;1271;23078;-57
2022/02/08 07:32:01;;;;;;;12.90;1.80;;;;;;;3.09;79.01;101006.37;106159;1271;26709;-57
2022/02/08 07:34:36;;;;;;;15.20;1.90;;;;;;;3.10;78.95;101004.23;106187;1271;24259;-58
2022/02/08 07:37:11;;;;;;;10.70;1.50;;;;;;;3.11;78.82;101009.81;106158;1270;25243;-55
2022/02/08 07:39:44;;;;;;;19.70;1.50;;;;;;;3.13;78.87;101009.48;106104;1271;22545;-58
2022/02/08 07:42:13;;;;;;;16.40;1.50;;;;;;;3.15;78.69;101009.77;106023;1271;23164;-59
2022/02/08 07:44:42;;;;;;;18.90;2.00;;;;;;;3.18;78.63;101008.88;107212;1270;22573;-58
2022/02/08 07:47:10;;;;;;;14.50;1.40;;;;;;;3.20;78.58;101008.86;106176;1271;22537;-58
2022/02/08 07:49:40;;;;;;;14.50;1.50;;;;;;;3.23;78.57;101010.80;108752;1270;22576;-57
2022/02/08 07:52:09;;;;;;;15.70;1.60;;;;;;;3.25;78.36;101010.85;106059;1271;25534;-56
2022/02/08 07:54:39;;;;;;;12.60;1.60;;;;;;;3.28;78.25;101007.27;106076;1271;22766;-59
2022/02/08 07:57:08;;;;;;;19.30;1.70;;;;;;;3.30;78.06;101010.23;105921;1271;24935;-57
2022/02/08 07:59:37;;;;;;;11.00;1.30;;;;;;;3.33;78.02;100999.49;106115;1270;24143;-57
2022/02/08 08:02:06;;;;;;;11.90;1.60;;;;;;;3.36;78.02;100993.95;106223;1270;22643;-59
2022/02/08 08:04:35;;;;;;;11.70;1.90;;;;;;;3.39;77.89;100994.38;106216;1271;22542;-59
2022/02/08 08:07:04;;;;;;;11.90;1.60;;;;;;;3.43;77.97;100994.64;106156;1271;22555;-56
2022/02/08 08:09:39;;;;;;;18.40;1.40;;;;;;;3.47;77.98;100993.73;106109;1270;24287;-58
2022/02/08 08:12:13;;;;;;;14.20;1.80;;;;;;;3.51;77.92;100996.04;106073;1270;26537;-57
2022/02/08 08:14:43;;;;;;;12.70;1.50;;;;;;;3.56;77.94;100998.20;105925;1270;25538;-58
2022/02/08 08:17:38;;;;;;;13.90;2.00;;;;;;;3.60;77.71;100999.88;106135;1270;24288;-60
2022/02/08 08:20:10;;;;;;;13.30;2.50;;;;;;;3.66;77.71;101000.84;105902;1271;22559;-61
2022/02/08 08:22:38;;;;;;;11.90;1.90;;;;;;;3.68;77.38;100991.02;106017;1270;25333;-58
2022/02/08 08:25:08;;;;;;;16.70;2.20;;;;;;;3.71;77.18;100973.95;106096;1271;24095;-56
2022/02/08 08:27:36;;;;;;;12.80;1.80;;;;;;;3.74;77.13;100982.02;106059;1270;22544;-58
2022/02/08 08:30:09;;;;;;;16.00;2.20;;;;;;;3.77;77.28;100981.67;105996;1270;25414;-58
2022/02/08 08:32:39;;;;;;;15.80;2.00;;;;;;;3.80;77.16;100975.56;106082;1270;22575;-60
2022/02/08 08:35:10;;;;;;;19.80;2.30;;;;;;;3.83;76.98;100968.17;106075;1271;22626;-56
2022/02/08 08:37:42;;;;;;;21.80;2.10;;;;;;;3.85;76.52;100966.49;106021;1270;24406;-57
2022/02/08 08:40:20;;;;;;;15.50;2.50;;;;;;;3.85;76.39;100962.23;106025;1270;22556;-59
2022/02/08 08:43:01;;;;;;;13.20;1.90;;;;;;;3.86;76.25;100969.16;106002;1270;25338;-56
2022/02/08 08:48:39;;;;;;;12.20;1.90;;;;;;;3.89;76.12;100971.23;105582;1276;22632;-56
2022/02/08 08:51:21;;;;;;;20.20;2.50;;;;;;;3.92;76.07;100965.05;105387;1276;24270;-56
2022/02/08 08:53:50;;;;;;;15.80;2.20;;;;;;;3.94;76.27;100960.75;105474;1276;24347;-55
2022/02/08 08:56:18;;;;;;;17.10;2.40;;;;;;;3.98;75.93;100966.77;105495;1277;23871;-59
2022/02/08 08:58:47;;;;;;;18.70;2.70;;;;;;;4.02;76.23;100970.26;105562;1276;22556;-56
2022/02/08 09:01:16;;;;;;;17.00;1.80;;;;;;;4.07;76.18;100972.96;105658;1277;22708;-56
2022/02/08 09:03:47;;;;;;;15.60;2.70;;;;;;;4.11;75.43;100974.73;105806;1276;25393;-58
2022/02/08 09:06:16;;;;;;;16.70;2.20;;;;;;;4.14;75.43;100971.77;105931;1276;26910;-55
2022/02/08 09:08:45;;;;;;;12.00;1.90;;;;;;;4.18;75.35;100971.85;105855;1277;22717;-56
2022/02/08 09:11:19;;;;;;;17.60;2.20;;;;;;;4.21;74.89;100969.28;105697;1276;23383;-58
2022/02/08 09:13:57;;;;;;;20.20;2.60;;;;;;;4.24;75.28;100975.39;105634;1277;22614;-56
2022/02/08 09:16:31;;;;;;;13.70;1.80;;;;;;;4.27;74.57;100975.42;105717;1276;22541;-58
2022/02/08 09:30:07;;;;;;;19.00;2.10;;;;;;;4.40;74.14;100963.05;105665;1276;25268;-55
2022/02/08 09:32:43;;;;;;;16.20;3.10;;;;;;;4.45;74.14;100956.25;105279;1276;551635;-57
2022/02/08 09:35:14;;;;;;;16.10;2.30;;;;;;;4.51;73.30;100955.62;105726;1276;23257;-59
2022/02/08 09:37:43;;;;;;;8.80;2.10;;;;;;;4.55;73.52;100956.64;105503;1277;24344;-58
2022/02/08 09:40:15;;;;;;;12.70;2.20;;;;;;;4.58;73.17;100956.35;105737;1277;22624;-58
2022/02/08 09:42:44;;;;;;;18.30;2.50;;;;;;;4.62;73.34;100953.14;105635;1276;23057;-60
2022/02/08 09:45:18;;;;;;;16.00;2.60;;;;;;;4.67;73.50;100950.49;105822;1276;22553;-58
2022/02/08 09:47:53;;;;;;;13.40;2.00;;;;;;;4.73;73.48;100949.38;105509;1276;22687;-57
2022/02/08 09:50:25;;;;;;;13.70;2.50;;;;;;;4.77;72.86;100947.71;105662;1276;24218;-57
2022/02/08 09:52:57;;;;;;;14.10;2.50;;;;;;;4.79;72.94;100942.31;105591;1276;24326;-60
2022/02/08 09:55:29;;;;;;;10.50;2.10;;;;;;;4.82;73.24;100941.16;105642;1277;22775;-59
2022/02/08 09:57:58;;;;;;;14.80;2.30;;;;;;;4.84;72.53;100934.63;105600;1276;24244;-60
2022/02/08 10:00:26;;;;;;;11.30;1.90;;;;;;;4.86;72.62;100933.02;105616;1276;25308;-58
2022/02/08 10:03:05;;;;;;;17.80;2.60;;;;;;;4.89;72.54;100928.15;106016;1271;26286;-58
2022/02/08 10:05:42;;;;;;;15.20;1.90;;;;;;;4.92;72.68;100917.80;106046;1270;22540;-59
2022/02/08 10:08:13;;;;;;;16.60;2.90;;;;;;;4.98;72.60;100913.75;106093;1270;24262;-56
2022/02/08 10:10:42;;;;;;;18.40;4.00;;;;;;;5.03;72.69;100907.73;106038;1270;24462;-60
2022/02/08 10:13:38;;;;;;;11.70;2.80;;;;;;;5.10;72.76;100908.13;105898;1270;22687;-59
2022/02/08 10:21:48;;;;;;;13.40;1.90;;;;;;;5.27;72.01;100898.84;106177;1270;24234;-55
2022/02/08 10:24:18;;;;;;;12.40;2.30;;;;;;;5.34;71.83;100900.52;106101;1271;22633;-60
2022/02/08 10:27:02;;;;;;;11.40;2.30;;;;;;;5.40;71.51;100893.59;105986;1271;22543;-60
2022/02/08 10:29:44;;;;;;;16.40;2.50;;;;;;;5.45;71.43;100881.13;105970;1271;25459;-61
2022/02/08 10:38:01;;;;;;;18.00;1.90;;;;;;;5.60;70.39;100878.59;106083;1271;22626;-58
2022/02/08 10:40:35;;;;;;;13.20;1.60;;;;;;;5.65;70.47;100871.49;106029;1271;24249;-58
2022/02/08 10:43:05;;;;;;;14.50;1.90;;;;;;;5.72;70.33;100862.79;106105;1271;25231;-57
2022/02/08 10:45:35;;;;;;;9.00;1.30;;;;;;;5.79;70.14;100849.58;106208;1270;22755;-58
2022/02/08 10:48:04;;;;;;;;;;;;;;;5.87;69.35;100845.92;106277;1270;22526;-58
2022/02/08 10:50:35;;;;;;;10.20;1.30;;;;;;;5.93;69.33;100844.45;106309;1271;22570;-58
2022/02/08 10:53:06;;;;;;;10.20;1.30;;;;;;;5.99;68.32;100840.16;106176;1271;24303;-58
2022/02/08 10:55:44;;;;;;;9.80;1.60;;;;;;;6.03;68.30;100833.98;106131;1270;23336;-59
2022/02/08 10:58:27;;;;;;;12.10;1.30;;;;;;;6.07;68.04;100833.80;106043;1271;22648;-58
2022/02/08 11:01:02;;;;;;;12.60;1.50;;;;;;;6.12;68.74;100832.48;106014;1270;22649;-60
2022/02/08 11:03:38;;;;;;;12.70;1.30;;;;;;;6.16;68.68;100823.98;106079;1271;22535;-58
2022/02/08 11:06:18;;;;;;;14.70;1.60;;;;;;;6.19;68.67;100831.18;106043;1271;22645;-59
2022/02/08 11:09:16;;;;;;;16.30;1.50;;;;;;;6.23;68.70;100832.98;106098;1270;22556;-59
2022/02/08 11:12:03;;;;;;;8.80;1.00;;;;;;;6.30;68.83;100828.14;106191;1271;22553;-59
2022/02/08 11:14:47;;;;;;;12.20;1.30;;;;;;;6.36;68.23;100825.44;105932;1271;25405;-62
2022/02/08 11:20:11;;;;;;;12.90;1.40;;;;;;;6.40;68.60;100820.09;105935;1271;22549;-58
2022/02/08 11:22:53;;;;;;;12.00;1.60;;;;;;;6.43;68.40;100820.50;106178;1271;23173;-59
2022/02/08 11:25:26;;;;;;;9.90;1.30;;;;;;;6.43;68.13;100813.85;106064;1271;22664;-59
2022/02/08 11:28:07;;;;;;;12.10;1.50;;;;;;;6.42;68.25;100805.55;106166;1270;25462;-59
2022/02/08 11:30:45;;;;;;;11.90;1.20;;;;;;;6.44;68.56;100800.11;106264;1270;24238;-60
2022/02/08 11:33:39;;;;;;;9.00;1.20;;;;;;;6.46;68.77;100802.42;106180;1270;26186;-58
2022/02/08 11:45:05;;;;;;;6.80;0.90;;;;;;;6.47;69.90;100806.59;106207;1270;25379;-60
2022/02/08 11:48:10;;;;;;;7.80;1.00;;;;;;;6.48;70.20;100802.91;106039;1270;23003;-60
2022/02/08 11:53:35;;;;;;;5.70;0.70;;;;;;;6.50;70.37;100802.25;106070;1270;22557;-58
2022/02/08 11:56:41;;;;;;;7.80;0.80;;;;;;;6.51;70.56;100800.48;106139;1270;22567;-62
2022/02/08 11:59:23;;;;;;;8.50;0.80;;;;;;;6.51;70.61;100799.84;105921;1270;22985;-60
2022/02/08 12:02:39;;;;;;;8.30;1.10;;;;;;;6.50;70.70;100803.34;106232;1271;25307;-59
2022/02/08 12:05:17;;;;;;;7.20;1.20;;;;;;;6.49;70.99;100811.77;105873;1270;22564;-59
2022/02/08 12:07:48;;;;;;;4.40;0.70;;;;;;;6.47;71.09;100800.50;106077;1271;25390;-59
2022/02/08 12:10:22;;;;;;;6.90;1.00;;;;;;;6.45;71.37;100790.88;106351;1270;22550;-61
2022/02/08 12:13:16;;;;;;;6.20;0.90;;;;;;;6.45;71.59;100795.41;106424;1270;25847;-61
2022/02/08 12:33:17;;;;;;;6.90;0.90;;;;;;;6.43;72.90;100795.05;107666;1276;22682;-63
2022/02/08 12:36:11;;;;;;;10.40;1.10;;;;;;;6.41;73.29;100795.84;105324;1276;24263;-62
2022/02/08 12:53:34;;;;;;;6.60;1.10;;;;;;;6.26;74.34;100778.80;105338;1276;22625;-62
2022/02/08 12:56:15;;;;;;;11.60;1.50;;;;;;;6.26;74.57;100771.36;105412;1276;22557;-62
2022/02/08 12:59:13;;;;;;;8.80;1.40;;;;;;;6.28;74.54;100764.50;105518;1276;24046;-62
2022/02/08 13:04:45;;;;;;;5.20;1.00;;;;;;;6.28;75.67;100767.41;105381;1276;25408;-61
2022/02/08 14:06:17;;;;;;;8.10;1.20;;;;;;;6.14;80.34;100731.05;105335;1276;22564;-63
2022/02/08 14:12:08;;;;;;;3.80;0.80;;;;;;;6.07;80.76;100731.40;107029;1281;22718;-61
2022/02/08 14:14:44;;;;;;;4.10;0.90;;;;;;;6.04;80.82;100719.11;104940;1281;22996;-60
2022/02/08 14:23:08;;;;;;;8.40;1.00;;;;;;;5.99;81.57;100711.66;105169;1282;22839;-62
2022/02/08 14:25:52;;;;;;;4.70;1.40;;;;;;;5.97;81.97;100709.52;105122;1281;22583;-61
2022/02/08 14:31:27;;;;;;;6.70;1.20;;;;;;;5.91;82.20;100703.00;104449;1287;22590;-61
2022/02/08 14:37:18;;;;;;;5.20;1.00;;;;;;;5.87;82.64;100694.39;104180;1290;26303;-61
2022/02/08 15:10:31;;;;;;;10.50;2.60;;;;;;;5.78;84.48;100696.59;105675;1277;22546;-57
2022/02/08 15:13:01;;;;;;;12.40;1.90;;;;;;;5.78;84.75;100705.13;105949;1271;22500;-56
2022/02/08 15:15:36;;;;;;;9.10;2.10;;;;;;;5.77;85.14;100701.75;106192;1271;22562;-57
2022/02/08 15:18:06;;;;;;;6.20;1.40;;;;;;;5.78;85.00;100701.90;106219;1270;22528;-59
2022/02/08 15:20:35;;;;;;;9.20;2.00;;;;;;;5.78;85.07;100698.33;106264;1271;22585;-59
2022/02/08 15:23:08;;;;;;;18.20;5.70;;;;;;;5.78;85.33;100695.09;106278;1271;22735;-59
2022/02/08 15:25:36;;;;;;;13.10;2.30;;;;;;;5.77;85.37;100695.19;106231;1271;22531;-57
2022/02/08 15:28:05;;;;;;;15.00;3.40;;;;;;;5.78;85.05;100697.70;106291;1271;25841;-61
2022/02/08 15:30:35;;;;;;;19.10;3.80;;;;;;;5.79;85.09;100702.20;106290;1270;25493;-56
2022/02/08 15:33:08;;;;;;;12.60;2.40;;;;;;;5.80;85.13;100701.93;106141;1270;23216;-56
2022/02/08 15:35:37;;;;;;;10.50;2.30;;;;;;;5.81;85.50;100708.09;106074;1270;24724;-58
2022/02/08 15:38:06;;;;;;;8.80;1.90;;;;;;;5.82;85.38;100710.19;106352;1270;24794;-57
2022/02/08 15:40:36;;;;;;;9.40;1.80;;;;;;;5.83;85.60;100713.88;106100;1270;24386;-57
2022/02/08 15:43:05;;;;;;;5.90;1.90;;;;;;;5.85;85.39;100713.70;105990;1270;22690;-62
2022/02/08 15:45:38;;;;;;;7.20;1.40;;;;;;;5.86;85.36;100712.70;106047;1270;23187;-57
2022/02/08 15:48:09;;;;;;;8.00;1.70;;;;;;;5.88;85.29;100713.13;106190;1270;24272;-58
2022/02/08 15:50:49;;;;;;;8.30;1.50;;;;;;;5.89;85.24;100715.87;106200;1271;23359;-57
2022/02/08 15:56:34;;;;;;;7.10;1.70;;;;;;;5.93;85.38;100719.89;106042;1270;25450;-58
2022/02/08 16:07:36;;;;;;;7.10;1.70;;;;;;;5.98;85.23;100712.71;105478;1276;22606;-54